createdAt,value
2023-04-09T00:01:11.823Z,21.73
2023-04-09T00:03:40.462Z,18.73
2023-04-09T00:06:07.803Z,17.53
2023-04-09T00:08:37.170Z,19.87
2023-04-09T00:11:04.892Z,18.83
2023-04-09T00:13:39.312Z,18.93
2023-04-09T00:16:08.543Z,19.50
2023-04-09T00:18:36.276Z,19.07
2023-04-09T00:21:03.387Z,18.47
2023-04-09T00:23:30.590Z,19.43
2023-04-09T00:25:57.748Z,19.47
2023-04-09T00:28:25.422Z,20.03
2023-04-09T00:30:52.620Z,19.40
2023-04-09T00:33:19.662Z,21.43
2023-04-09T00:35:46.763Z,19.43
2023-04-09T00:38:13.859Z,19.90
2023-04-09T00:40:41.038Z,20.40
2023-04-09T00:43:08.102Z,19.87
2023-04-09T00:45:36.040Z,19.37
2023-04-09T00:48:03.469Z,18.07
2023-04-09T00:50:30.621Z,15.30
2023-04-09T00:52:57.758Z,17.00
2023-04-09T00:55:25.891Z,18.13
2023-04-09T00:57:52.991Z,19.27
2023-04-09T01:00:20.583Z,19.57
2023-04-09T01:02:48.858Z,18.93
2023-04-09T01:05:16.096Z,19.33
2023-04-09T01:08:32.349Z,16.73
2023-04-09T01:11:20.885Z,15.40
2023-04-09T01:14:21.065Z,15.70
2023-04-09T01:16:59.925Z,16.67
2023-04-09T01:20:07.444Z,18.27
2023-04-09T01:23:04.575Z,16.83
2023-04-09T01:26:24.328Z,23.37
2023-04-09T01:28:56.001Z,21.83
2023-04-09T01:31:36.237Z,25.30
2023-04-09T01:34:06.270Z,22.60
2023-04-09T01:36:35.771Z,23.93
2023-04-09T01:39:03.617Z,25.97
2023-04-09T01:41:34.168Z,23.83
2023-04-09T01:44:05.776Z,21.60
2023-04-09T01:46:35.224Z,19.53
2023-04-09T01:49:03.034Z,18.57
2023-04-09T01:51:32.315Z,18.90
2023-04-09T01:54:00.868Z,18.00
2023-04-09T01:56:27.953Z,19.03
2023-04-09T01:58:55.273Z,25.27
2023-04-09T02:01:53.316Z,20.97
2023-04-09T02:04:31.035Z,21.93
2023-04-09T02:07:20.650Z,24.40
2023-04-09T02:09:49.419Z,24.87
2023-04-09T02:12:19.587Z,22.57
2023-04-09T02:14:49.175Z,25.20
2023-04-09T02:17:16.339Z,22.63
2023-04-09T02:19:46.562Z,24.47
2023-04-09T02:22:15.540Z,25.87
2023-04-09T02:24:42.698Z,39.57
2023-04-09T02:27:09.946Z,38.47
2023-04-09T02:29:37.071Z,41.27
2023-04-09T02:32:04.302Z,62.23
2023-04-09T02:34:31.413Z,42.10
2023-04-09T02:36:58.488Z,34.83
2023-04-09T02:39:26.026Z,38.67
2023-04-09T02:41:53.183Z,29.10
2023-04-09T02:44:20.372Z,33.47
2023-04-09T02:46:49.538Z,33.03
2023-04-09T02:49:16.728Z,63.50
2023-04-09T02:51:43.778Z,80.47
2023-04-09T02:54:10.842Z,92.90
2023-04-09T02:56:37.992Z,85.20
2023-04-09T02:59:04.998Z,98.00
2023-04-09T03:01:32.168Z,68.80
2023-04-09T03:04:00.932Z,89.57
2023-04-09T03:06:28.414Z,106.47
2023-04-09T03:08:55.536Z,119.30
2023-04-09T03:11:22.778Z,101.30
2023-04-09T03:13:50.177Z,97.30
2023-04-09T03:16:17.312Z,115.10
2023-04-09T03:18:44.493Z,121.10
2023-04-09T03:21:13.743Z,103.30
2023-04-09T03:23:42.062Z,103.73
2023-04-09T03:26:09.233Z,96.27
2023-04-09T03:28:36.421Z,68.23
2023-04-09T03:31:06.532Z,37.23
2023-04-09T03:33:33.546Z,61.20
2023-04-09T03:36:00.745Z,82.20
2023-04-09T03:38:27.832Z,86.53
2023-04-09T03:40:55.897Z,90.93
2023-04-09T03:43:22.936Z,81.80
2023-04-09T03:45:50.071Z,75.97
2023-04-09T03:48:17.147Z,53.47
2023-04-09T03:50:44.220Z,60.20
2023-04-09T03:53:11.334Z,54.53
2023-04-09T03:55:41.431Z,73.87
2023-04-09T03:58:08.528Z,78.47
2023-04-09T04:00:35.765Z,60.50
2023-04-09T04:03:03.166Z,45.67
2023-04-09T04:05:30.714Z,38.53
2023-04-09T04:07:57.787Z,62.13
2023-04-09T04:10:24.904Z,63.10
2023-04-09T04:12:54.305Z,74.07
2023-04-09T04:15:21.422Z,33.73
2023-04-09T04:17:48.525Z,52.97
2023-04-09T04:20:15.730Z,43.03
2023-04-09T04:22:42.771Z,33.07
2023-04-09T04:25:10.703Z,34.27
2023-04-09T04:27:37.812Z,31.10
2023-04-09T04:30:06.163Z,51.13
2023-04-09T04:32:33.293Z,41.70
2023-04-09T04:35:00.430Z,28.27
2023-04-09T04:37:27.613Z,29.93
2023-04-09T04:39:54.665Z,26.07
2023-04-09T04:42:23.113Z,29.20
2023-04-09T04:44:50.233Z,33.17
2023-04-09T04:47:17.665Z,27.30
2023-04-09T04:49:44.845Z,54.10
2023-04-09T04:52:11.941Z,34.57
2023-04-09T04:54:39.056Z,31.27
2023-04-09T04:57:06.165Z,43.30
2023-04-09T04:59:33.545Z,35.17
2023-04-09T05:02:02.551Z,42.57
2023-04-09T05:04:29.748Z,24.23
2023-04-09T05:06:56.804Z,52.50
2023-04-09T05:09:26.212Z,60.23
2023-04-09T05:11:53.318Z,42.23
2023-04-09T05:14:21.506Z,23.50
2023-04-09T05:16:48.659Z,31.23
2023-04-09T05:19:15.730Z,49.30
2023-04-09T05:21:42.855Z,62.20
2023-04-09T05:24:09.907Z,46.93
2023-04-09T05:26:37.087Z,44.57
2023-04-09T05:29:04.249Z,34.97
2023-04-09T05:31:31.659Z,28.43
2023-04-09T05:33:58.750Z,47.70
2023-04-09T05:36:26.192Z,25.13
2023-04-09T05:38:53.499Z,26.27
2023-04-09T05:41:20.896Z,22.90
2023-04-09T05:43:47.975Z,24.93
2023-04-09T05:46:15.239Z,21.33
2023-04-09T05:48:42.631Z,27.27
2023-04-09T05:51:09.980Z,42.47
2023-04-09T05:53:37.106Z,21.83
2023-04-09T05:56:14.812Z,20.80
2023-04-09T05:58:41.857Z,22.30
2023-04-09T06:01:10.087Z,20.23
2023-04-09T06:03:37.358Z,19.23
2023-04-09T06:06:05.004Z,21.13
2023-04-09T06:08:32.093Z,20.87
2023-04-09T06:10:59.446Z,18.90
2023-04-09T06:13:26.617Z,24.63
2023-04-09T06:15:53.830Z,39.27
2023-04-09T06:18:21.257Z,44.03
2023-04-09T06:20:48.356Z,33.30
2023-04-09T06:23:15.653Z,26.40
2023-04-09T06:25:42.959Z,21.93
2023-04-09T06:28:09.965Z,22.27
2023-04-09T06:30:37.409Z,20.13
2023-04-09T06:33:04.679Z,19.77
2023-04-09T06:35:32.433Z,19.77
2023-04-09T06:37:59.507Z,19.20
2023-04-09T06:40:27.331Z,21.20
2023-04-09T06:42:54.414Z,23.27
2023-04-09T06:45:21.646Z,20.60
2023-04-09T06:47:49.262Z,19.03
2023-04-09T06:50:16.676Z,19.30
2023-04-09T06:52:43.703Z,20.77
2023-04-09T06:55:11.492Z,26.47
2023-04-09T06:57:39.231Z,22.70
2023-04-09T07:00:07.939Z,19.30
2023-04-09T07:02:35.697Z,18.17
2023-04-09T07:05:04.241Z,21.00
2023-04-09T07:07:31.628Z,22.53
2023-04-09T07:09:58.743Z,21.00
2023-04-09T07:12:35.234Z,30.33
2023-04-09T07:15:07.591Z,24.80
2023-04-09T07:17:35.894Z,22.60
2023-04-09T07:20:03.630Z,20.60
2023-04-09T07:22:31.138Z,21.03
2023-04-09T07:24:58.265Z,24.10
2023-04-09T07:27:28.529Z,23.43
2023-04-09T07:29:59.946Z,23.20
2023-04-09T07:32:28.118Z,20.97
2023-04-09T07:34:57.229Z,17.30
2023-04-09T07:37:24.469Z,18.33
2023-04-09T07:39:51.612Z,20.43
2023-04-09T07:42:18.892Z,21.20
2023-04-09T07:44:47.412Z,22.83
2023-04-09T07:47:15.419Z,20.90
2023-04-09T07:49:42.659Z,19.90
2023-04-09T07:52:09.706Z,19.70
2023-04-09T07:54:36.836Z,20.13
2023-04-09T07:57:04.003Z,18.53
2023-04-09T07:59:31.681Z,22.67
2023-04-09T08:01:59.631Z,22.10
2023-04-09T08:04:27.328Z,25.93
2023-04-09T08:06:55.021Z,22.37
2023-04-09T08:09:22.185Z,27.93
2023-04-09T08:11:50.459Z,30.87
2023-04-09T08:14:18.795Z,26.40
2023-04-09T08:16:47.829Z,21.80
2023-04-09T08:19:17.251Z,21.93
2023-04-09T08:21:44.883Z,23.43
2023-04-09T08:24:12.676Z,21.67
2023-04-09T08:26:41.402Z,21.33
2023-04-09T08:29:12.220Z,21.87
2023-04-09T08:31:39.838Z,22.90
2023-04-09T08:34:10.428Z,21.63
2023-04-09T08:36:37.553Z,21.37
2023-04-09T08:39:04.814Z,22.60
2023-04-09T08:41:32.036Z,21.47
2023-04-09T08:43:59.913Z,22.83
2023-04-09T08:46:28.415Z,20.33
2023-04-09T08:48:56.487Z,20.93
2023-04-09T08:51:25.000Z,28.07
2023-04-09T08:54:04.382Z,21.33
2023-04-09T08:56:32.629Z,21.00
2023-04-09T08:59:00.003Z,20.20
2023-04-09T09:01:30.505Z,21.73
2023-04-09T09:04:09.500Z,19.97
2023-04-09T09:06:41.086Z,20.47
2023-04-09T09:09:16.966Z,22.23
2023-04-09T09:11:50.985Z,18.93
2023-04-09T09:14:19.836Z,21.50
2023-04-09T09:16:56.139Z,20.60
2023-04-09T09:19:30.727Z,19.80
2023-04-09T09:22:01.811Z,18.07
2023-04-09T09:24:32.466Z,17.70
2023-04-09T09:26:59.872Z,17.60
2023-04-09T09:29:28.525Z,17.90
2023-04-09T09:31:56.898Z,18.77
2023-04-09T09:34:25.883Z,19.93
2023-04-09T09:36:53.341Z,20.80
2023-04-09T09:39:22.016Z,18.50
2023-04-09T09:42:06.540Z,19.33
2023-04-09T09:44:34.052Z,19.33
2023-04-09T09:47:03.479Z,17.40
2023-04-09T09:49:30.622Z,18.03
2023-04-09T09:52:03.167Z,18.27
2023-04-09T09:54:47.673Z,20.33
2023-04-09T09:57:18.743Z,20.90
2023-04-09T10:00:00.531Z,19.80
2023-04-09T10:02:32.918Z,19.67
2023-04-09T10:05:04.525Z,16.30
2023-04-09T10:07:32.002Z,15.83
2023-04-09T10:10:01.004Z,15.37
2023-04-09T10:12:28.543Z,13.23
2023-04-09T10:14:56.574Z,18.17
2023-04-09T10:17:23.700Z,15.77
2023-04-09T10:20:32.882Z,16.37
2023-04-09T10:23:09.511Z,12.50
2023-04-09T10:25:36.814Z,15.97
2023-04-09T10:28:18.736Z,17.63
2023-04-09T10:30:46.425Z,15.00
2023-04-09T10:33:21.930Z,14.97
2023-04-09T10:35:49.218Z,15.83
2023-04-09T10:38:16.352Z,15.40
2023-04-09T10:40:49.757Z,17.40
2023-04-09T10:43:23.524Z,17.07
2023-04-09T10:45:54.433Z,17.03
2023-04-09T10:48:25.919Z,16.97
2023-04-09T10:50:53.094Z,16.00
2023-04-09T10:53:25.626Z,17.83
2023-04-09T10:55:56.966Z,16.20
2023-04-09T10:58:27.143Z,15.77
2023-04-09T11:00:55.404Z,16.30
2023-04-09T11:03:31.291Z,15.20
2023-04-09T11:06:05.924Z,15.67
2023-04-09T11:08:34.233Z,17.60
2023-04-09T11:11:02.650Z,16.00
2023-04-09T11:13:32.510Z,15.73
2023-04-09T11:16:01.472Z,15.63
2023-04-09T11:18:30.740Z,15.63
2023-04-09T11:21:01.128Z,15.63
2023-04-09T11:23:29.284Z,15.80
2023-04-09T11:25:56.702Z,16.20
2023-04-09T11:28:27.083Z,16.03
2023-04-09T11:30:54.309Z,15.43
2023-04-09T11:33:21.776Z,16.80
2023-04-09T11:35:51.652Z,16.77
2023-04-09T11:38:18.731Z,16.27
2023-04-09T11:40:49.307Z,17.57
2023-04-09T11:43:17.888Z,18.07
2023-04-09T11:45:48.373Z,16.80
2023-04-09T11:48:21.707Z,16.20
2023-04-09T11:50:49.182Z,16.83
2023-04-09T11:53:24.504Z,18.83
2023-04-09T11:55:53.274Z,17.37
2023-04-09T11:58:29.423Z,16.27
2023-04-09T12:00:59.245Z,16.57
2023-04-09T12:03:37.475Z,17.63
2023-04-09T12:06:07.327Z,17.00
2023-04-09T12:08:37.811Z,17.43
2023-04-09T12:11:15.029Z,15.90
2023-04-09T12:13:45.814Z,17.30
2023-04-09T12:16:21.277Z,16.77
2023-04-09T12:18:50.451Z,14.20
2023-04-09T12:21:19.408Z,15.37
2023-04-09T12:23:46.602Z,15.93
2023-04-09T12:26:14.593Z,17.43
2023-04-09T12:28:41.967Z,17.23
2023-04-09T12:31:11.956Z,16.87
2023-04-09T12:33:40.244Z,16.43
2023-04-09T12:36:07.512Z,17.70
2023-04-09T12:38:34.634Z,15.23
2023-04-09T12:41:02.356Z,15.57
2023-04-09T12:43:29.414Z,15.43
2023-04-09T12:45:57.136Z,15.83
2023-04-09T12:48:24.280Z,16.17
2023-04-09T12:50:51.611Z,15.43
2023-04-09T12:53:19.336Z,14.20
2023-04-09T12:55:46.806Z,15.10
2023-04-09T12:58:13.898Z,15.43
2023-04-09T13:00:41.450Z,15.70
2023-04-09T13:03:09.119Z,14.63
2023-04-09T13:05:36.382Z,13.90
2023-04-09T13:08:03.849Z,14.87
2023-04-09T13:10:31.768Z,15.17
2023-04-09T13:12:59.092Z,15.23
2023-04-09T13:15:26.226Z,14.27
2023-04-09T13:17:53.517Z,14.67
2023-04-09T13:20:20.935Z,14.67
2023-04-09T13:22:49.106Z,14.30
2023-04-09T13:25:16.638Z,14.70
2023-04-09T13:27:44.180Z,15.43
2023-04-09T13:30:11.722Z,14.80
2023-04-09T13:32:39.212Z,15.40
2023-04-09T13:35:10.232Z,14.95
2023-04-09T13:37:37.315Z,13.82
2023-04-09T13:40:05.021Z,14.82
2023-04-09T13:42:32.434Z,14.18
2023-04-09T13:44:59.575Z,14.65
2023-04-09T13:47:27.763Z,16.50
2023-04-09T13:49:57.226Z,15.05
2023-04-09T13:52:29.670Z,14.60
2023-04-09T13:54:57.059Z,14.23
2023-04-09T13:57:24.241Z,14.23
2023-04-09T13:59:51.537Z,15.00
2023-04-09T14:02:19.229Z,14.82
2023-04-09T14:04:46.677Z,14.50
2023-04-09T14:07:16.537Z,14.27
2023-04-09T14:09:43.937Z,15.98
2023-04-09T14:12:11.058Z,14.63
2023-04-09T14:14:38.200Z,14.60
2023-04-09T14:17:05.534Z,13.55
2023-04-09T14:19:32.676Z,14.52
2023-04-09T14:21:59.732Z,13.90
2023-04-09T14:24:26.858Z,13.32
2023-04-09T14:26:54.090Z,12.95
2023-04-09T14:29:22.005Z,12.45
2023-04-09T14:31:49.336Z,13.15
2023-04-09T14:34:16.728Z,13.50
2023-04-09T14:36:43.794Z,13.80
2023-04-09T14:39:12.218Z,14.05
2023-04-09T14:41:39.291Z,14.80
2023-04-09T14:44:06.415Z,13.48
2023-04-09T14:46:36.747Z,13.20
2023-04-09T14:49:03.873Z,14.63
2023-04-09T14:51:31.809Z,13.93
2023-04-09T14:53:58.946Z,13.38
2023-04-09T14:56:26.112Z,13.45
2023-04-09T14:58:54.137Z,12.15
2023-04-09T15:01:21.360Z,14.73
2023-04-09T15:03:48.526Z,14.52
2023-04-09T15:06:15.698Z,14.65
2023-04-09T15:08:44.457Z,12.80
2023-04-09T15:11:20.705Z,13.60
2023-04-09T15:13:49.945Z,13.35
2023-04-09T15:16:27.856Z,12.88
2023-04-09T15:18:58.452Z,14.20
2023-04-09T15:21:27.773Z,13.38
2023-04-09T15:23:58.849Z,12.07
2023-04-09T15:26:27.292Z,13.23
2023-04-09T15:29:07.757Z,14.10
2023-04-09T15:31:35.035Z,14.00
2023-04-09T15:34:02.185Z,13.18
2023-04-09T15:36:30.861Z,12.23
2023-04-09T15:38:58.293Z,12.48
2023-04-09T15:41:26.803Z,13.50
2023-04-09T15:43:53.934Z,14.00
2023-04-09T15:46:21.329Z,12.27
2023-04-09T15:48:48.445Z,12.90
2023-04-09T15:51:20.668Z,13.43
2023-04-09T15:53:47.930Z,12.40
2023-04-09T15:56:17.502Z,13.40
2023-04-09T15:58:44.595Z,13.93
2023-04-09T16:01:12.894Z,13.30
2023-04-09T16:03:41.145Z,11.43
2023-04-09T16:06:13.442Z,13.07
2023-04-09T16:08:40.735Z,12.23
2023-04-09T16:11:08.395Z,13.33
2023-04-09T16:13:36.194Z,13.50
2023-04-09T16:16:04.255Z,12.70
2023-04-09T16:18:31.355Z,12.97
2023-04-09T16:20:58.813Z,11.97
2023-04-09T16:23:28.517Z,12.70
2023-04-09T16:25:57.729Z,12.52
2023-04-09T16:28:26.189Z,13.18
2023-04-09T16:30:53.994Z,12.82
2023-04-09T16:33:21.188Z,13.57
2023-04-09T16:35:48.393Z,14.43
2023-04-09T16:38:15.621Z,14.75
2023-04-09T16:40:43.842Z,13.33
2023-04-09T16:43:11.455Z,15.65
2023-04-09T16:45:41.432Z,15.60
2023-04-09T16:48:12.076Z,14.83
2023-04-09T16:50:40.772Z,13.83
2023-04-09T16:53:10.332Z,12.82
2023-04-09T16:55:37.553Z,15.93
2023-04-09T16:58:04.675Z,14.50
2023-04-09T17:00:31.840Z,13.33
2023-04-09T17:03:02.229Z,12.33
2023-04-09T17:05:29.904Z,12.70
2023-04-09T17:08:00.628Z,12.57
2023-04-09T17:10:28.142Z,13.10
2023-04-09T17:12:55.211Z,12.73
2023-04-09T17:15:25.912Z,12.67
2023-04-09T17:17:53.910Z,12.73
2023-04-09T17:20:24.192Z,13.77
2023-04-09T17:22:51.826Z,13.87
2023-04-09T17:25:20.410Z,12.47
2023-04-09T17:27:47.552Z,13.57
2023-04-09T17:30:14.801Z,13.90
2023-04-09T17:32:43.678Z,13.63
2023-04-09T17:35:10.846Z,13.90
2023-04-09T17:37:38.602Z,14.20
2023-04-09T17:40:06.967Z,14.17
2023-04-09T17:42:36.294Z,14.33
2023-04-09T17:45:04.549Z,13.40
2023-04-09T17:47:31.697Z,14.63
2023-04-09T17:49:59.666Z,14.23
2023-04-09T17:52:26.746Z,14.30
2023-04-09T17:54:53.810Z,14.93
2023-04-09T17:57:20.910Z,14.63
2023-04-09T17:59:48.859Z,16.17
2023-04-09T18:02:16.065Z,16.03
2023-04-09T18:04:43.353Z,16.77
2023-04-09T18:07:10.560Z,16.53
2023-04-09T18:09:39.175Z,16.90
2023-04-09T18:12:06.390Z,18.33
2023-04-09T18:14:33.628Z,14.83
2023-04-09T18:17:01.134Z,15.50
2023-04-09T18:19:28.338Z,14.57
2023-04-09T18:21:55.436Z,14.17
2023-04-09T18:24:22.489Z,14.77
2023-04-09T18:26:49.638Z,15.23
2023-04-09T18:29:16.741Z,15.93
2023-04-09T18:31:43.882Z,26.43
2023-04-09T18:34:11.496Z,20.10
2023-04-09T18:36:38.996Z,19.27
2023-04-09T18:39:06.520Z,19.50
2023-04-09T18:41:33.581Z,19.63
2023-04-09T18:44:00.810Z,18.83
2023-04-09T18:46:28.115Z,20.27
2023-04-09T18:48:56.291Z,19.30
2023-04-09T18:51:23.390Z,20.57
2023-04-09T18:53:53.082Z,23.40
2023-04-09T18:56:21.275Z,20.57
2023-04-09T18:58:48.668Z,19.30
2023-04-09T19:01:17.387Z,18.97
2023-04-09T19:03:44.849Z,18.73
2023-04-09T19:06:18.572Z,23.37
2023-04-09T19:08:47.592Z,28.00
2023-04-09T19:11:15.325Z,31.90
2023-04-09T19:13:42.408Z,25.23
2023-04-09T19:16:09.718Z,22.60
2023-04-09T19:18:37.810Z,21.93
2023-04-09T19:21:07.377Z,20.77
2023-04-09T19:23:34.942Z,18.97
2023-04-09T19:26:03.108Z,19.60
2023-04-09T19:28:30.597Z,18.77
2023-04-09T19:30:59.614Z,17.73
2023-04-09T19:33:27.840Z,16.77
2023-04-09T19:35:56.029Z,16.20
2023-04-09T19:38:23.250Z,16.93
2023-04-09T19:40:50.409Z,16.73
2023-04-09T19:43:17.605Z,14.70
2023-04-09T19:45:46.890Z,17.90
2023-04-09T19:48:14.082Z,16.83
2023-04-09T19:50:42.919Z,15.83
2023-04-09T19:53:10.697Z,17.50
2023-04-09T19:55:38.088Z,16.57
2023-04-09T19:58:06.626Z,15.47
2023-04-09T20:00:34.546Z,16.23
2023-04-09T20:03:02.883Z,18.90
2023-04-09T20:05:30.227Z,15.33
2023-04-09T20:07:57.418Z,15.77
2023-04-09T20:10:24.889Z,17.47
2023-04-09T20:12:52.335Z,15.90
2023-04-09T20:15:22.847Z,14.67
2023-04-09T20:17:51.369Z,15.70
2023-04-09T20:20:19.848Z,15.07
2023-04-09T20:22:55.570Z,14.93
2023-04-09T20:25:24.877Z,15.07
2023-04-09T20:27:58.683Z,18.80
2023-04-09T20:30:25.978Z,17.77
2023-04-09T20:32:53.121Z,16.70
2023-04-09T20:35:20.452Z,14.60
2023-04-09T20:37:49.137Z,18.97
2023-04-09T20:40:18.680Z,24.73
2023-04-09T20:42:46.069Z,70.00
2023-04-09T20:45:13.237Z,117.70
2023-04-09T20:47:41.035Z,75.47
2023-04-09T20:50:10.345Z,41.10
2023-04-09T20:52:38.233Z,26.97
2023-04-09T20:55:08.296Z,19.43
2023-04-09T20:57:35.385Z,18.07
2023-04-09T21:00:03.175Z,19.20
2023-04-09T21:02:30.987Z,19.23
2023-04-09T21:05:08.309Z,18.97
2023-04-09T21:07:49.498Z,16.37
2023-04-09T21:10:16.716Z,18.87
2023-04-09T21:12:43.809Z,21.40
2023-04-09T21:15:11.729Z,22.87
2023-04-09T21:17:38.896Z,22.60
2023-04-09T21:20:09.271Z,21.60
2023-04-09T21:22:36.663Z,20.70
2023-04-09T21:25:07.156Z,20.17
2023-04-09T21:27:34.346Z,23.37
2023-04-09T21:30:01.441Z,27.27
2023-04-09T21:32:28.615Z,25.47
2023-04-09T21:34:55.698Z,24.63
2023-04-09T21:37:22.814Z,25.57
2023-04-09T21:39:50.089Z,22.47
2023-04-09T21:42:17.178Z,19.90
2023-04-09T21:44:44.314Z,17.57
2023-04-09T21:47:12.135Z,17.93
2023-04-09T21:49:40.357Z,19.30
2023-04-09T21:52:14.127Z,23.10
2023-04-09T21:54:43.898Z,20.13
2023-04-09T21:57:11.719Z,18.93
2023-04-09T21:59:40.981Z,24.67
2023-04-09T22:02:09.250Z,26.03
2023-04-09T22:04:36.432Z,26.60
2023-04-09T22:07:04.162Z,25.53
2023-04-09T22:09:31.547Z,23.50
2023-04-09T22:11:59.560Z,25.13
2023-04-09T22:14:29.264Z,25.97
2023-04-09T22:17:01.498Z,26.60
2023-04-09T22:19:32.026Z,25.30
2023-04-09T22:21:59.782Z,26.60
2023-04-09T22:24:28.593Z,24.67
2023-04-09T22:26:58.765Z,23.97
2023-04-09T22:29:26.818Z,23.80
2023-04-09T22:31:55.712Z,20.97
2023-04-09T22:34:22.838Z,18.50
2023-04-09T22:36:50.675Z,20.03
2023-04-09T22:39:17.825Z,18.37
2023-04-09T22:41:44.916Z,22.40
2023-04-09T22:44:12.091Z,18.57
2023-04-09T22:46:39.177Z,19.53
2023-04-09T22:49:06.552Z,18.87
2023-04-09T22:51:36.744Z,16.47
2023-04-09T22:54:04.201Z,17.77
2023-04-09T22:56:32.271Z,18.57
2023-04-09T22:58:59.685Z,18.27
2023-04-09T23:01:27.952Z,16.80
2023-04-09T23:03:55.577Z,19.57
2023-04-09T23:06:22.919Z,16.60
2023-04-09T23:08:50.527Z,16.53
2023-04-09T23:11:17.812Z,18.57
2023-04-09T23:13:44.977Z,17.87
2023-04-09T23:16:12.151Z,16.93
2023-04-09T23:18:39.339Z,14.73
2023-04-09T23:21:10.974Z,15.37
2023-04-09T23:23:39.103Z,16.10
2023-04-09T23:26:06.829Z,15.90
2023-04-09T23:28:34.158Z,17.40
2023-04-09T23:31:01.554Z,17.20
2023-04-09T23:33:28.656Z,17.33
2023-04-09T23:35:55.757Z,16.70
2023-04-09T23:38:23.315Z,16.10
2023-04-09T23:40:50.584Z,17.63
2023-04-09T23:43:17.640Z,20.63
2023-04-09T23:45:44.900Z,18.10
2023-04-09T23:48:12.874Z,18.67
2023-04-09T23:50:41.132Z,17.43
2023-04-09T23:53:08.715Z,15.37
2023-04-09T23:55:41.279Z,16.13
2023-04-09T23:58:09.428Z,13.70
